Doonan Corners, New York
Current Conditions -  °F | °C
As of 4:15 PM on Thursday 23 Oct 2014 (Local Time) from KMSV Reporting Station
Overcast Overcast  
Wind Chill: 39°   Ceiling: 1200
Heat Index: 46°   Visibility: 10mi
Dew Point: 43°   Wind: 17mph
Humidity: 87%   Direction: 320°NW
Pressure: 29.81"   Gusts: 23mph
Location:  42.3649°N, 74.7968°W
Report Text: KMSV 232015Z AUTO 32015G20KT 10SM OVC012 08/06 A2981 RMK AO1
Loading
Personal Weather Stations






























Interactive Weather Map
Tropical Storm Tracking
New forecast layout! Learn more

10-Day Weather Forecast

Advertisements
Track Severe Weather on mobile